createdAt,value
2023-05-06T00:01:40.249Z,4.20
2023-05-06T00:04:13.637Z,4.10
2023-05-06T00:06:47.610Z,4.20
2023-05-06T00:09:21.548Z,4.30
2023-05-06T00:11:55.643Z,4.20
2023-05-06T00:14:29.718Z,4.40
2023-05-06T00:17:04.061Z,4.50
2023-05-06T00:19:38.921Z,4.50
2023-05-06T00:22:12.282Z,4.10
2023-05-06T00:24:45.548Z,4.40
2023-05-06T00:27:19.014Z,4.30
2023-05-06T00:29:53.101Z,4.40
2023-05-06T00:32:26.689Z,3.80
2023-05-06T00:35:00.706Z,4.00
2023-05-06T00:37:34.526Z,3.90
2023-05-06T00:40:09.993Z,3.80
2023-05-06T00:42:43.337Z,3.80
2023-05-06T00:45:16.843Z,4.20
2023-05-06T00:47:50.378Z,4.10
2023-05-06T00:50:25.972Z,4.00
2023-05-06T00:53:01.005Z,3.60
2023-05-06T00:55:34.772Z,3.50
2023-05-06T00:58:09.536Z,3.60
2023-05-06T01:00:43.342Z,3.90
2023-05-06T01:03:17.592Z,3.90
2023-05-06T01:05:59.509Z,3.50
2023-05-06T01:08:37.667Z,3.30
2023-05-06T01:11:15.942Z,3.50
2023-05-06T01:13:54.095Z,3.80
2023-05-06T01:16:31.211Z,3.70
2023-05-06T01:19:07.897Z,3.30
2023-05-06T01:21:43.490Z,3.60
2023-05-06T01:24:16.788Z,3.50
2023-05-06T01:26:50.370Z,3.20
2023-05-06T01:29:23.656Z,3.50
2023-05-06T01:32:01.502Z,3.60
2023-05-06T01:34:44.081Z,3.50
2023-05-06T01:37:24.974Z,3.80
2023-05-06T01:40:00.618Z,3.40
2023-05-06T01:42:35.835Z,3.60
2023-05-06T01:45:11.644Z,3.20
2023-05-06T01:47:46.769Z,3.50
2023-05-06T01:50:20.851Z,3.60
2023-05-06T01:53:02.202Z,3.10
2023-05-06T01:55:35.291Z,3.80
2023-05-06T01:58:08.785Z,3.00
2023-05-06T02:00:42.544Z,3.40
2023-05-06T02:03:15.752Z,3.50
2023-05-06T02:05:49.401Z,3.50
2023-05-06T02:08:23.152Z,3.40
2023-05-06T02:10:57.098Z,3.10
2023-05-06T02:13:30.816Z,3.00
2023-05-06T02:16:04.287Z,3.60
2023-05-06T02:18:38.672Z,3.40
2023-05-06T02:21:13.687Z,3.50
2023-05-06T02:23:47.144Z,3.00
2023-05-06T02:26:21.300Z,3.40
2023-05-06T02:28:55.197Z,3.00
2023-05-06T02:31:29.146Z,2.90
2023-05-06T02:34:02.786Z,3.40
2023-05-06T02:36:36.644Z,4.00
2023-05-06T02:39:10.208Z,3.10
2023-05-06T02:41:43.909Z,3.30
2023-05-06T02:44:17.879Z,3.30
2023-05-06T02:46:52.040Z,3.00
2023-05-06T02:49:25.630Z,3.20
2023-05-06T02:51:58.825Z,3.10
2023-05-06T02:54:32.657Z,3.30
2023-05-06T02:57:06.434Z,3.00
2023-05-06T02:59:41.005Z,3.40
2023-05-06T03:02:14.501Z,3.10
2023-05-06T03:04:48.117Z,3.20
2023-05-06T03:07:21.528Z,3.70
2023-05-06T03:09:56.189Z,2.90
2023-05-06T03:12:30.351Z,3.00
2023-05-06T03:15:03.702Z,2.80
2023-05-06T03:17:38.058Z,3.00
2023-05-06T03:20:13.938Z,3.20
2023-05-06T03:22:51.006Z,3.30
2023-05-06T03:25:25.167Z,3.40
2023-05-06T03:27:59.012Z,3.70
2023-05-06T03:30:34.107Z,2.80
2023-05-06T03:33:08.703Z,2.90
2023-05-06T03:35:42.933Z,3.10
2023-05-06T03:38:16.992Z,3.40
2023-05-06T03:40:56.659Z,3.30
2023-05-06T03:43:30.985Z,3.60
2023-05-06T03:46:08.102Z,3.00
2023-05-06T03:48:43.427Z,3.10
2023-05-06T03:51:18.996Z,2.90
2023-05-06T03:53:54.723Z,2.90
2023-05-06T03:56:28.613Z,2.90
2023-05-06T03:59:02.378Z,3.10
2023-05-06T04:01:36.902Z,3.10
2023-05-06T04:04:11.203Z,3.40
2023-05-06T04:06:46.034Z,3.00
2023-05-06T04:09:19.486Z,3.20
2023-05-06T04:11:54.461Z,3.10
2023-05-06T04:14:28.495Z,3.00
2023-05-06T04:17:02.272Z,3.20
2023-05-06T04:19:36.179Z,3.40
2023-05-06T04:22:09.857Z,3.40
2023-05-06T04:24:45.970Z,3.10
2023-05-06T04:27:20.653Z,3.00
2023-05-06T04:29:54.256Z,3.30
2023-05-06T04:32:28.438Z,2.90
2023-05-06T04:35:02.504Z,3.10
2023-05-06T04:37:36.365Z,3.10
2023-05-06T04:40:18.370Z,3.20
2023-05-06T04:42:54.203Z,3.10
2023-05-06T04:45:34.886Z,3.30
2023-05-06T04:48:10.352Z,3.20
2023-05-06T04:50:44.396Z,2.80
2023-05-06T04:53:18.203Z,3.20
2023-05-06T04:55:51.727Z,3.20
2023-05-06T04:58:25.790Z,2.80
2023-05-06T05:00:59.391Z,3.10
2023-05-06T05:03:33.303Z,3.00
2023-05-06T05:06:09.116Z,3.20
2023-05-06T05:08:43.551Z,3.30
2023-05-06T05:11:17.075Z,3.10
2023-05-06T05:13:51.307Z,3.30
2023-05-06T05:16:25.425Z,3.10
2023-05-06T05:19:01.571Z,3.30
2023-05-06T05:21:37.875Z,3.10
2023-05-06T05:24:11.804Z,3.20
2023-05-06T05:26:45.148Z,2.60
2023-05-06T05:29:19.127Z,3.20
2023-05-06T05:31:52.761Z,3.10
2023-05-06T05:34:26.677Z,3.10
2023-05-06T05:37:02.270Z,3.00
2023-05-06T05:39:36.733Z,3.00
2023-05-06T05:42:10.344Z,3.50
2023-05-06T05:44:44.950Z,3.20
2023-05-06T05:47:19.144Z,3.10
2023-05-06T05:49:52.979Z,3.60
2023-05-06T05:52:27.386Z,3.10
2023-05-06T05:55:01.365Z,3.30
2023-05-06T05:57:35.372Z,3.00
2023-05-06T06:00:12.818Z,3.00
2023-05-06T06:02:53.760Z,3.00
2023-05-06T06:05:27.547Z,3.30
2023-05-06T06:08:03.634Z,3.20
2023-05-06T06:10:38.323Z,3.20
2023-05-06T06:13:16.813Z,3.20
2023-05-06T06:15:50.757Z,3.70
2023-05-06T06:18:24.566Z,3.20
2023-05-06T06:20:58.510Z,2.90
2023-05-06T06:23:32.452Z,2.80
2023-05-06T06:26:07.537Z,3.40
2023-05-06T06:28:42.202Z,3.00
2023-05-06T06:31:15.866Z,2.80
2023-05-06T06:33:49.299Z,3.20
2023-05-06T06:36:23.006Z,2.60
2023-05-06T06:38:56.315Z,2.80
2023-05-06T06:41:30.309Z,2.90
2023-05-06T06:44:03.959Z,2.50
2023-05-06T06:46:37.631Z,2.70
2023-05-06T06:49:11.230Z,2.90
2023-05-06T06:51:44.599Z,4.50
2023-05-06T06:54:18.085Z,2.70
2023-05-06T06:56:51.770Z,2.70
2023-05-06T06:59:25.213Z,2.90
2023-05-06T07:01:58.848Z,2.90
2023-05-06T07:04:32.697Z,2.70
2023-05-06T07:07:07.133Z,2.70
2023-05-06T07:09:41.496Z,2.30
2023-05-06T07:12:15.448Z,2.90
2023-05-06T07:14:49.939Z,2.30
2023-05-06T07:17:23.839Z,2.50
2023-05-06T07:19:57.415Z,3.00
2023-05-06T07:22:31.657Z,2.60
2023-05-06T07:25:05.923Z,2.80
2023-05-06T07:27:39.682Z,2.40
2023-05-06T07:30:14.949Z,2.90
2023-05-06T07:32:49.113Z,2.70
2023-05-06T07:35:23.083Z,2.50
2023-05-06T07:37:57.348Z,2.80
2023-05-06T07:40:30.716Z,2.60
2023-05-06T07:43:04.990Z,2.40
2023-05-06T07:45:38.935Z,2.70
2023-05-06T07:48:12.337Z,2.20
2023-05-06T07:50:46.051Z,2.30
2023-05-06T07:53:19.615Z,2.10
2023-05-06T07:55:52.844Z,2.90
2023-05-06T07:58:26.792Z,3.50
2023-05-06T08:01:00.688Z,2.40
2023-05-06T08:03:35.294Z,2.70
2023-05-06T08:06:09.675Z,2.60
2023-05-06T08:08:43.458Z,2.50
2023-05-06T08:11:19.354Z,2.50
2023-05-06T08:13:53.572Z,2.70
2023-05-06T08:16:27.264Z,2.50
2023-05-06T08:19:00.860Z,2.00
2023-05-06T08:21:34.392Z,2.10
2023-05-06T08:24:08.604Z,2.80
2023-05-06T08:26:42.704Z,2.10
2023-05-06T08:29:16.273Z,2.30
2023-05-06T08:31:49.832Z,2.10
2023-05-06T08:34:23.940Z,1.80
2023-05-06T08:36:57.581Z,2.50
2023-05-06T08:39:31.537Z,2.30
2023-05-06T08:42:07.326Z,2.30
2023-05-06T08:44:41.242Z,2.40
2023-05-06T08:47:15.334Z,2.20
2023-05-06T08:49:48.769Z,2.00
2023-05-06T08:52:23.666Z,2.20
2023-05-06T08:55:02.005Z,2.60
2023-05-06T08:57:37.024Z,2.20
2023-05-06T09:00:15.229Z,2.20
2023-05-06T09:02:49.127Z,2.20
2023-05-06T09:05:23.513Z,2.30
2023-05-06T09:07:57.051Z,2.10
2023-05-06T09:10:35.048Z,2.40
2023-05-06T09:13:08.955Z,2.00
2023-05-06T09:15:47.775Z,2.10
2023-05-06T09:20:53.227Z,2.60
2023-05-06T09:23:26.854Z,2.20
2023-05-06T09:26:01.899Z,2.30
2023-05-06T09:28:36.671Z,2.30
2023-05-06T09:31:10.496Z,1.90
2023-05-06T09:33:44.317Z,2.10
2023-05-06T09:36:18.025Z,2.30
2023-05-06T09:38:54.508Z,2.00
2023-05-06T09:41:28.444Z,2.20
2023-05-06T09:44:02.074Z,2.40
2023-05-06T09:46:36.336Z,2.10
2023-05-06T09:49:10.621Z,2.60
2023-05-06T09:51:48.380Z,2.60
2023-05-06T09:54:22.797Z,2.10
2023-05-06T09:56:57.834Z,2.10
2023-05-06T09:59:34.469Z,2.10
2023-05-06T10:02:09.664Z,1.80
2023-05-06T10:04:45.110Z,1.90
2023-05-06T10:07:23.147Z,2.20
2023-05-06T10:09:58.697Z,2.00
2023-05-06T10:12:32.840Z,2.00
2023-05-06T10:15:07.625Z,2.30
2023-05-06T10:17:46.457Z,3.30
2023-05-06T10:20:23.029Z,2.20
2023-05-06T10:23:05.245Z,2.20
2023-05-06T10:25:41.048Z,2.20
2023-05-06T10:28:19.534Z,2.10
2023-05-06T10:31:08.644Z,2.50
2023-05-06T10:33:43.987Z,2.60
2023-05-06T10:36:22.451Z,2.00
2023-05-06T10:38:59.013Z,2.00
2023-05-06T10:41:33.659Z,1.90
2023-05-06T10:44:07.628Z,2.60
2023-05-06T10:47:02.105Z,2.40
2023-05-06T10:49:36.320Z,2.20
2023-05-06T10:52:17.512Z,2.00
2023-05-06T10:54:53.209Z,2.60
2023-05-06T10:57:27.561Z,2.60
2023-05-06T11:00:01.707Z,2.10
2023-05-06T11:02:35.481Z,2.30
2023-05-06T11:05:11.296Z,2.20
2023-05-06T11:07:45.267Z,2.40
2023-05-06T11:10:32.674Z,2.40
2023-05-06T11:13:23.517Z,2.00
2023-05-06T11:15:58.533Z,2.30
2023-05-06T11:18:47.881Z,2.80
2023-05-06T11:21:41.999Z,2.10
2023-05-06T11:24:16.799Z,2.20
2023-05-06T11:26:51.601Z,2.60
2023-05-06T11:29:25.623Z,2.20
2023-05-06T11:31:59.834Z,2.70
2023-05-06T11:34:35.662Z,2.70
2023-05-06T11:37:10.928Z,2.30
2023-05-06T11:39:51.320Z,2.90
2023-05-06T11:42:30.223Z,2.80
2023-05-06T11:45:05.929Z,2.60
2023-05-06T11:47:45.986Z,2.50
2023-05-06T11:50:25.589Z,2.50
2023-05-06T11:52:59.738Z,3.40
2023-05-06T11:55:33.565Z,2.50
2023-05-06T11:58:07.386Z,2.40
2023-05-06T12:00:49.032Z,2.40
2023-05-06T12:03:24.990Z,2.20
2023-05-06T12:05:59.077Z,2.30
2023-05-06T12:08:35.157Z,2.20
2023-05-06T12:11:10.542Z,3.10
2023-05-06T12:13:44.531Z,2.30
2023-05-06T12:16:18.771Z,2.60
2023-05-06T12:18:53.683Z,2.70
2023-05-06T12:21:28.860Z,3.10
2023-05-06T12:24:03.921Z,2.70
2023-05-06T12:26:52.248Z,2.40
2023-05-06T12:29:25.928Z,2.60
2023-05-06T12:32:13.245Z,2.60
2023-05-06T12:34:46.990Z,2.00
2023-05-06T12:37:30.479Z,3.00
2023-05-06T12:40:04.366Z,2.90
2023-05-06T12:42:37.980Z,3.30
2023-05-06T12:45:21.625Z,2.80
2023-05-06T12:48:00.023Z,2.80
2023-05-06T12:50:41.783Z,2.80
2023-05-06T12:53:32.029Z,3.10
2023-05-06T12:56:05.716Z,2.60
2023-05-06T12:58:40.094Z,3.40
2023-05-06T13:01:13.954Z,3.40
2023-05-06T13:03:47.693Z,3.60
2023-05-06T13:06:21.309Z,3.10
2023-05-06T13:08:54.892Z,3.10
2023-05-06T13:11:28.726Z,3.60
2023-05-06T13:14:02.561Z,3.30
2023-05-06T13:16:36.800Z,3.20
2023-05-06T13:19:21.261Z,3.90
2023-05-06T13:21:59.107Z,3.60
2023-05-06T13:24:32.711Z,4.10
2023-05-06T13:27:06.464Z,3.60
2023-05-06T13:29:40.058Z,3.10
2023-05-06T13:32:13.263Z,4.00
2023-05-06T13:34:47.051Z,3.20
2023-05-06T13:37:20.710Z,3.50
2023-05-06T13:39:54.272Z,3.50
2023-05-06T13:42:27.868Z,3.60
2023-05-06T13:45:01.339Z,3.30
2023-05-06T13:47:35.330Z,3.60
2023-05-06T13:50:10.524Z,3.70
2023-05-06T13:52:44.628Z,4.20
2023-05-06T13:55:19.503Z,3.70
2023-05-06T13:57:53.923Z,3.70
2023-05-06T14:00:27.834Z,3.50
2023-05-06T14:03:02.752Z,4.30
2023-05-06T14:05:36.637Z,4.30
2023-05-06T14:08:10.704Z,4.30
2023-05-06T14:10:44.197Z,4.10
2023-05-06T14:13:17.928Z,3.90
2023-05-06T14:15:51.576Z,4.00
2023-05-06T14:18:26.565Z,4.10
2023-05-06T14:21:00.895Z,3.60
2023-05-06T14:23:34.585Z,4.00
2023-05-06T14:26:08.173Z,3.50
2023-05-06T14:28:41.781Z,3.50
2023-05-06T14:31:15.545Z,3.30
2023-05-06T14:33:49.084Z,4.10
2023-05-06T14:36:25.626Z,4.20
2023-05-06T14:38:59.266Z,3.70
2023-05-06T14:41:32.802Z,3.30
2023-05-06T14:44:07.013Z,3.80
2023-05-06T14:46:40.716Z,3.30
2023-05-06T14:49:15.132Z,3.20
2023-05-06T14:51:50.169Z,2.90
2023-05-06T14:54:23.931Z,3.60
2023-05-06T14:57:01.738Z,3.70
2023-05-06T14:59:35.142Z,3.10
2023-05-06T15:02:11.439Z,3.40
2023-05-06T15:04:45.110Z,3.80
2023-05-06T15:07:18.820Z,4.40
2023-05-06T15:09:52.789Z,4.10
2023-05-06T15:12:26.526Z,3.40
2023-05-06T15:15:00.172Z,3.90
2023-05-06T15:17:33.937Z,3.90
2023-05-06T15:20:09.097Z,4.20
2023-05-06T15:22:42.909Z,3.70
2023-05-06T15:25:30.339Z,4.80
2023-05-06T15:28:08.938Z,4.30
2023-05-06T15:30:42.376Z,4.30
2023-05-06T15:33:15.766Z,4.60
2023-05-06T15:35:49.453Z,3.90
2023-05-06T15:38:23.356Z,4.10
2023-05-06T15:40:57.244Z,4.20
2023-05-06T15:43:37.754Z,4.20
2023-05-06T15:46:12.888Z,4.40
2023-05-06T15:48:46.730Z,4.70
2023-05-06T15:51:21.182Z,4.30
2023-05-06T15:53:54.612Z,4.70
2023-05-06T15:56:28.669Z,4.20
2023-05-06T15:59:02.216Z,4.30
2023-05-06T16:02:16.535Z,4.70
2023-05-06T16:04:31.986Z,5.10
2023-05-06T16:07:06.617Z,4.30
2023-05-06T16:09:40.429Z,4.50
2023-05-06T16:12:15.069Z,4.60
2023-05-06T16:14:48.418Z,4.40
2023-05-06T16:17:22.226Z,3.60
2023-05-06T16:19:56.271Z,4.30
2023-05-06T16:22:30.266Z,3.70
2023-05-06T16:25:04.728Z,4.00
2023-05-06T16:27:38.906Z,4.30
2023-05-06T16:30:14.942Z,5.00
2023-05-06T16:32:49.006Z,3.70
2023-05-06T16:35:22.661Z,5.10
2023-05-06T16:37:56.459Z,4.70
2023-05-06T16:40:31.417Z,4.10
2023-05-06T16:43:05.081Z,4.20
2023-05-06T16:45:39.922Z,4.10
2023-05-06T16:48:14.720Z,4.20
2023-05-06T16:50:48.155Z,4.60
2023-05-06T16:53:21.923Z,4.20
2023-05-06T16:55:55.450Z,4.60
2023-05-06T16:58:30.220Z,4.50
2023-05-06T17:01:03.745Z,4.30
2023-05-06T17:03:38.653Z,4.50
2023-05-06T17:06:12.622Z,4.20
2023-05-06T17:08:46.920Z,5.00
2023-05-06T17:11:21.026Z,4.50
2023-05-06T17:13:55.767Z,4.40
2023-05-06T17:16:29.111Z,4.60
2023-05-06T17:19:02.864Z,4.10
2023-05-06T17:21:36.487Z,4.40
2023-05-06T17:24:11.043Z,4.20
2023-05-06T17:26:44.806Z,4.20
2023-05-06T17:29:18.317Z,4.40
2023-05-06T17:31:51.913Z,4.30
2023-05-06T17:34:25.434Z,4.30
2023-05-06T17:37:00.309Z,4.10
2023-05-06T17:39:34.620Z,5.60
2023-05-06T17:42:08.746Z,4.20
2023-05-06T17:44:43.175Z,4.20
2023-05-06T17:47:17.821Z,4.80
2023-05-06T17:49:51.797Z,4.20
2023-05-06T17:52:25.666Z,4.80
2023-05-06T17:55:14.690Z,5.20
2023-05-06T17:57:49.533Z,4.40
2023-05-06T18:00:24.048Z,5.10
2023-05-06T18:02:58.129Z,4.90
2023-05-06T18:05:31.959Z,4.10
2023-05-06T18:08:06.183Z,5.00
2023-05-06T18:10:41.491Z,4.80
2023-05-06T18:13:15.312Z,5.40
2023-05-06T18:15:48.980Z,4.50
2023-05-06T18:18:22.787Z,5.00
2023-05-06T18:20:56.751Z,4.60
2023-05-06T18:23:30.801Z,4.70
2023-05-06T18:26:07.331Z,3.90
2023-05-06T18:28:41.821Z,4.60
2023-05-06T18:31:15.884Z,4.50
2023-05-06T18:33:49.851Z,4.30
2023-05-06T18:36:23.513Z,3.70
2023-05-06T18:38:57.356Z,4.60
2023-05-06T18:41:31.222Z,4.70
2023-05-06T18:44:06.140Z,4.50
2023-05-06T18:46:39.830Z,4.70
2023-05-06T18:49:14.404Z,4.30
2023-05-06T18:51:48.221Z,4.30
2023-05-06T18:54:21.936Z,4.10
2023-05-06T18:56:55.693Z,4.10
2023-05-06T18:59:29.756Z,4.30
2023-05-06T19:02:04.102Z,4.30
2023-05-06T19:04:38.813Z,4.50
2023-05-06T19:07:14.336Z,4.40
2023-05-06T19:09:49.309Z,3.90
2023-05-06T19:12:23.089Z,4.50
2023-05-06T19:14:56.782Z,4.50
2023-05-06T19:17:31.097Z,4.50
2023-05-06T19:20:05.567Z,5.10
2023-05-06T19:22:39.843Z,4.40
2023-05-06T19:25:14.590Z,5.20
2023-05-06T19:27:48.342Z,4.40
2023-05-06T19:30:22.518Z,4.50
2023-05-06T19:32:57.513Z,4.00
2023-05-06T19:35:31.179Z,4.50
2023-05-06T19:38:04.913Z,4.80
2023-05-06T19:40:39.033Z,4.30
2023-05-06T19:43:12.844Z,4.10
2023-05-06T19:45:46.533Z,3.90
2023-05-06T19:48:22.549Z,4.10
2023-05-06T19:50:56.551Z,4.40
2023-05-06T19:53:30.694Z,4.70
2023-05-06T19:56:12.435Z,4.10
2023-05-06T19:58:46.424Z,4.20
2023-05-06T20:01:22.908Z,4.00
2023-05-06T20:03:57.360Z,4.80
2023-05-06T20:06:32.087Z,4.00
2023-05-06T20:09:05.639Z,4.20
2023-05-06T20:11:42.364Z,4.80
2023-05-06T20:14:16.189Z,4.00
2023-05-06T20:16:49.925Z,4.20
2023-05-06T20:19:26.666Z,4.60
2023-05-06T20:22:00.771Z,4.30
2023-05-06T20:24:35.091Z,4.20
2023-05-06T20:27:08.997Z,4.30
2023-05-06T20:29:43.069Z,4.20
2023-05-06T20:32:16.749Z,4.00
2023-05-06T20:34:50.825Z,4.10
2023-05-06T20:37:24.774Z,4.40
2023-05-06T20:39:59.334Z,4.60
2023-05-06T20:42:33.826Z,3.80
2023-05-06T20:45:09.679Z,4.00
2023-05-06T20:47:43.882Z,4.00
2023-05-06T20:50:18.995Z,3.70
2023-05-06T20:52:53.197Z,4.10
2023-05-06T20:55:26.912Z,4.10
2023-05-06T20:58:01.151Z,4.30
2023-05-06T21:00:34.838Z,4.30
2023-05-06T21:03:08.806Z,3.80
2023-05-06T21:05:42.334Z,3.50
2023-05-06T21:08:16.100Z,4.20
2023-05-06T21:10:49.658Z,3.90
2023-05-06T21:13:23.142Z,4.70
2023-05-06T21:15:56.785Z,4.10
2023-05-06T21:18:30.949Z,4.30
2023-05-06T21:21:04.730Z,3.60
2023-05-06T21:23:38.148Z,4.10
2023-05-06T21:26:13.064Z,4.50
2023-05-06T21:28:51.980Z,4.10
2023-05-06T21:31:26.933Z,4.50
2023-05-06T21:34:01.890Z,4.30
2023-05-06T21:36:36.421Z,4.20
2023-05-06T21:39:12.685Z,4.50
2023-05-06T21:41:46.577Z,4.40
2023-05-06T21:44:19.930Z,4.60
2023-05-06T21:46:53.929Z,4.30
2023-05-06T21:49:27.741Z,4.70
2023-05-06T21:52:01.893Z,4.30
2023-05-06T21:54:35.823Z,3.90
2023-05-06T21:57:09.501Z,4.10
2023-05-06T21:59:43.176Z,4.20
2023-05-06T22:02:16.806Z,4.80
2023-05-06T22:04:50.859Z,3.80
2023-05-06T22:07:24.439Z,3.80
2023-05-06T22:09:57.946Z,3.70
2023-05-06T22:12:32.637Z,4.10
2023-05-06T22:15:07.419Z,3.70
2023-05-06T22:17:41.115Z,3.80
2023-05-06T22:20:15.662Z,4.80
2023-05-06T22:22:49.418Z,3.70
2023-05-06T22:25:23.035Z,4.40
2023-05-06T22:27:56.520Z,3.80
2023-05-06T22:30:30.461Z,4.00
2023-05-06T22:33:03.866Z,3.80
2023-05-06T22:35:37.492Z,3.80
2023-05-06T22:38:11.689Z,3.70
2023-05-06T22:40:46.181Z,3.60
2023-05-06T22:43:19.798Z,3.50
2023-05-06T22:45:53.663Z,3.90
2023-05-06T22:48:27.292Z,3.50
2023-05-06T22:51:01.666Z,3.70
2023-05-06T22:53:35.509Z,3.30
2023-05-06T22:56:10.706Z,3.60
2023-05-06T22:58:44.285Z,3.80
2023-05-06T23:01:18.540Z,3.50
2023-05-06T23:03:52.343Z,3.40
2023-05-06T23:06:25.921Z,3.60
2023-05-06T23:08:59.759Z,3.10
2023-05-06T23:11:33.342Z,3.70
2023-05-06T23:14:07.840Z,3.50
2023-05-06T23:16:41.513Z,3.60
2023-05-06T23:19:15.819Z,3.70
2023-05-06T23:21:49.739Z,3.50
2023-05-06T23:24:23.425Z,3.20
2023-05-06T23:26:57.237Z,3.10
2023-05-06T23:29:31.264Z,3.10
2023-05-06T23:32:05.076Z,3.30
2023-05-06T23:34:38.883Z,2.80
2023-05-06T23:37:13.399Z,2.90
2023-05-06T23:39:47.920Z,2.90
2023-05-06T23:42:22.817Z,3.30
2023-05-06T23:44:57.435Z,3.10
2023-05-06T23:47:31.514Z,2.70
2023-05-06T23:50:06.004Z,2.90
2023-05-06T23:52:39.570Z,3.50
2023-05-06T23:55:14.236Z,3.10
2023-05-06T23:57:48.408Z,3.30
